createdAt,value
2019-03-01T00:03:19.260Z,9.80
2019-03-01T00:08:40.878Z,9.80
2019-03-01T00:14:13.503Z,9.80
2019-03-01T00:19:52.343Z,9.80
2019-03-01T00:25:33.989Z,9.80
2019-03-01T00:31:12.993Z,9.70
2019-03-01T00:36:49.934Z,9.70
2019-03-01T00:42:28.464Z,9.80
2019-03-01T00:47:34.726Z,9.60
2019-03-01T00:52:42.712Z,9.60
2019-03-01T00:57:48.979Z,9.60
2019-03-01T01:02:56.780Z,9.60
2019-03-01T01:08:03.361Z,9.50
2019-03-01T01:13:09.641Z,9.40
2019-03-01T01:18:15.906Z,9.40
2019-03-01T01:23:25.737Z,9.40
2019-03-01T01:28:35.716Z,9.50
2019-03-01T01:33:42.056Z,9.40
2019-03-01T01:38:48.541Z,9.40
2019-03-01T01:43:54.831Z,9.40
2019-03-01T01:49:01.311Z,9.40
2019-03-01T01:54:07.604Z,9.40
2019-03-01T01:59:16.960Z,9.30
2019-03-01T02:04:23.747Z,9.30
2019-03-01T02:09:30.324Z,9.20
2019-03-01T02:14:37.953Z,9.20
2019-03-01T02:19:44.333Z,9.20
2019-03-01T02:24:50.571Z,9.20
2019-03-01T02:29:57.731Z,9.20
2019-03-01T02:35:04.028Z,9.20
2019-03-01T02:40:14.086Z,9.20
2019-03-01T02:45:21.772Z,9.20
2019-03-01T02:50:28.197Z,9.20
2019-03-01T02:55:34.678Z,9.10
2019-03-01T03:00:40.979Z,9.20
2019-03-01T03:06:18.448Z,9.20
2019-03-01T03:11:24.895Z,9.20
2019-03-01T03:16:31.147Z,9.20
2019-03-01T03:21:37.549Z,9.30
2019-03-01T03:26:43.922Z,9.30
2019-03-01T03:31:50.314Z,9.30
2019-03-01T03:36:56.945Z,9.30
2019-03-01T03:42:03.343Z,9.20
2019-03-01T03:47:09.708Z,9.20
2019-03-01T03:52:15.943Z,9.20
2019-03-01T03:57:22.546Z,9.10
2019-03-01T04:02:28.911Z,9.10
2019-03-01T04:07:36.870Z,9.20
2019-03-01T04:12:44.581Z,9.20
2019-03-01T04:17:50.901Z,9.20
2019-03-01T04:23:00.108Z,9.20
2019-03-01T04:28:06.441Z,9.20
2019-03-01T04:33:12.881Z,9.10
2019-03-01T04:38:19.263Z,9.30
2019-03-01T04:43:26.895Z,9.20
2019-03-01T04:48:33.442Z,9.30
2019-03-01T04:53:39.667Z,9.30
2019-03-01T04:58:45.933Z,9.30
2019-03-01T05:03:52.315Z,9.30
2019-03-01T05:08:58.624Z,9.30
2019-03-01T05:14:05.666Z,9.20
2019-03-01T05:19:11.931Z,9.30
2019-03-01T05:24:18.284Z,9.30
2019-03-01T05:29:24.515Z,9.30
2019-03-01T05:34:30.824Z,9.30
2019-03-01T05:39:37.058Z,9.30
2019-03-01T05:44:43.280Z,9.20
2019-03-01T05:49:49.551Z,9.20
2019-03-01T05:54:55.784Z,9.30
2019-03-01T06:00:02.138Z,9.20
2019-03-01T06:05:15.904Z,9.20
2019-03-01T06:10:34.649Z,9.20
2019-03-01T06:16:11.071Z,9.10
2019-03-01T06:22:19.401Z,9.10
2019-03-01T06:27:48.480Z,9.00
2019-03-01T06:33:44.483Z,8.90
2019-03-01T06:40:30.567Z,8.80
2019-03-01T06:46:29.999Z,8.60
2019-03-01T06:51:38.234Z,8.50
2019-03-01T06:56:46.710Z,8.40
2019-03-01T07:01:53.016Z,8.30
2019-03-01T07:06:59.231Z,8.20
2019-03-01T07:12:05.580Z,8.30
2019-03-01T07:17:11.815Z,8.20
2019-03-01T07:22:18.062Z,8.10
2019-03-01T07:27:24.420Z,8.20
2019-03-01T07:32:30.844Z,8.20
2019-03-01T07:37:43.685Z,8.20
2019-03-01T07:42:50.267Z,8.30
2019-03-01T07:47:56.765Z,8.20
2019-03-01T07:53:03.805Z,8.10
2019-03-01T07:58:11.170Z,8.20
2019-03-01T08:03:17.622Z,8.00
2019-03-01T08:08:23.972Z,8.00
2019-03-01T08:13:30.391Z,8.00
2019-03-01T08:18:40.215Z,8.00
2019-03-01T08:23:44.951Z,8.00
2019-03-01T08:28:54.694Z,8.00
2019-03-01T08:33:59.844Z,8.10
2019-03-01T08:39:07.222Z,8.10
2019-03-01T08:44:13.741Z,8.20
2019-03-01T08:49:21.861Z,8.10
2019-03-01T08:54:28.147Z,8.10
2019-03-01T08:59:34.442Z,8.10
2019-03-01T09:04:50.461Z,8.10
2019-03-01T09:09:50.341Z,8.00
2019-03-01T09:14:57.080Z,8.10
2019-03-01T09:20:07.194Z,8.20
2019-03-01T09:25:14.324Z,8.30
2019-03-01T09:30:22.893Z,8.40
2019-03-01T09:35:51.492Z,8.50
2019-03-01T09:41:01.310Z,8.60
2019-03-01T09:46:08.899Z,8.50
2019-03-01T09:51:16.019Z,8.50
2019-03-01T09:56:24.283Z,8.50
2019-03-01T10:01:30.862Z,8.40
2019-03-01T10:06:38.366Z,8.40
2019-03-01T10:11:45.003Z,8.40
2019-03-01T10:16:54.872Z,8.20
2019-03-01T10:22:01.129Z,8.20
2019-03-01T10:27:08.086Z,8.30
2019-03-01T10:32:14.403Z,8.20
2019-03-01T10:37:20.929Z,8.20
2019-03-01T10:42:27.271Z,8.20
2019-03-01T10:47:33.727Z,8.30
2019-03-01T10:52:40.271Z,8.40
2019-03-01T10:57:46.629Z,8.40
2019-03-01T11:02:54.502Z,8.40
2019-03-01T11:08:00.785Z,8.60
2019-03-01T11:13:08.077Z,8.60
2019-03-01T11:18:14.391Z,8.50
2019-03-01T11:23:22.405Z,8.30
2019-03-01T11:28:28.651Z,8.30
2019-03-01T11:33:34.902Z,8.10
2019-03-01T11:38:41.292Z,7.90
2019-03-01T11:43:47.779Z,7.80
2019-03-01T11:48:54.432Z,7.70
2019-03-01T11:54:00.847Z,7.60
2019-03-01T11:59:07.353Z,7.50
2019-03-01T12:04:13.677Z,7.40
2019-03-01T12:09:19.988Z,7.40
2019-03-01T12:14:27.785Z,7.50
2019-03-01T12:19:34.025Z,7.40
2019-03-01T12:24:40.372Z,7.50
2019-03-01T12:29:46.633Z,7.50
2019-03-01T12:34:54.761Z,7.60
2019-03-01T12:40:01.265Z,7.60
2019-03-01T12:45:10.478Z,7.70
2019-03-01T12:50:17.699Z,7.60
2019-03-01T12:55:24.063Z,7.70
2019-03-01T13:00:31.218Z,7.70
2019-03-01T13:05:37.518Z,7.50
2019-03-01T13:10:46.098Z,7.60
2019-03-01T13:15:52.447Z,7.60
2019-03-01T13:20:58.741Z,7.70
2019-03-01T13:26:06.155Z,7.60
2019-03-01T13:31:13.338Z,7.60
2019-03-01T13:36:19.699Z,7.80
2019-03-01T13:41:26.029Z,8.00
2019-03-01T13:46:33.432Z,8.00
2019-03-01T13:51:39.763Z,8.00
2019-03-01T13:56:47.520Z,8.20
2019-03-01T14:01:53.837Z,8.10
2019-03-01T14:07:00.203Z,8.10
2019-03-01T14:12:06.524Z,8.00
2019-03-01T14:17:13.845Z,7.80
2019-03-01T14:22:20.177Z,7.70
2019-03-01T14:27:29.563Z,7.90
2019-03-01T14:32:34.871Z,7.90
2019-03-01T14:37:41.154Z,8.00
2019-03-01T14:42:47.776Z,8.00
2019-03-01T14:47:54.411Z,8.00
2019-03-01T14:53:00.688Z,8.00
2019-03-01T14:58:14.158Z,8.10
2019-03-01T15:03:35.370Z,8.00
2019-03-01T15:08:44.114Z,8.00
2019-03-01T15:13:52.318Z,8.10
2019-03-01T15:19:00.036Z,8.20
2019-03-01T15:24:06.580Z,8.20
2019-03-01T15:29:14.027Z,8.10
2019-03-01T15:34:20.420Z,7.90
2019-03-01T15:39:28.301Z,7.80
2019-03-01T15:44:34.618Z,7.80
2019-03-01T15:49:40.897Z,7.70
2019-03-01T15:54:47.345Z,7.70
2019-03-01T15:59:53.654Z,7.70
2019-03-01T16:04:59.989Z,7.70
2019-03-01T16:10:07.692Z,7.60
2019-03-01T16:15:14.160Z,7.50
2019-03-01T16:20:21.224Z,7.50
2019-03-01T16:25:27.510Z,7.50
2019-03-01T16:30:33.889Z,7.50
2019-03-01T16:35:48.453Z,7.50
2019-03-01T16:40:56.759Z,7.60
2019-03-01T16:46:03.127Z,7.50
2019-03-01T16:51:10.630Z,7.40
2019-03-01T16:56:20.214Z,7.50
2019-03-01T17:01:29.796Z,7.40
2019-03-01T17:06:34.754Z,7.50
2019-03-01T17:11:42.836Z,7.60
2019-03-01T17:16:49.206Z,7.60
2019-03-01T17:21:55.572Z,7.50
2019-03-01T17:27:05.817Z,7.50
2019-03-01T17:32:12.472Z,7.50
2019-03-01T17:37:18.848Z,7.50
2019-03-01T17:42:25.146Z,7.40
2019-03-01T17:47:31.399Z,7.30
2019-03-01T17:52:37.999Z,7.40
2019-03-01T17:57:44.495Z,7.20
2019-03-01T18:02:52.121Z,7.20
2019-03-01T18:07:59.833Z,7.10
2019-03-01T18:13:07.104Z,7.10
2019-03-01T18:18:13.658Z,7.10
2019-03-01T18:23:20.025Z,7.00
2019-03-01T18:28:28.286Z,7.10
2019-03-01T18:33:35.342Z,7.10
2019-03-01T18:38:42.008Z,7.20
2019-03-01T18:43:50.318Z,7.20
2019-03-01T18:48:56.591Z,7.10
2019-03-01T18:54:04.154Z,7.10
2019-03-01T18:59:13.230Z,7.10
2019-03-01T19:04:29.354Z,7.10
2019-03-01T19:09:29.179Z,7.10
2019-03-01T19:14:39.124Z,7.20
2019-03-01T19:19:48.286Z,7.20
2019-03-01T19:24:54.747Z,7.00
2019-03-01T19:30:01.062Z,7.00
2019-03-01T19:35:10.583Z,7.00
2019-03-01T19:40:17.846Z,7.10
2019-03-01T19:45:28.667Z,7.10
2019-03-01T19:50:35.122Z,7.00
2019-03-01T19:55:43.988Z,7.00
2019-03-01T20:00:49.662Z,7.00
2019-03-01T20:05:56.329Z,7.10
2019-03-01T20:11:02.817Z,7.00
2019-03-01T20:16:09.104Z,6.80
2019-03-01T20:21:15.429Z,6.80
2019-03-01T20:26:23.539Z,6.90
2019-03-01T20:31:31.592Z,6.80
2019-03-01T20:36:38.042Z,6.80
2019-03-01T20:41:46.355Z,6.80
2019-03-01T20:46:57.320Z,6.80
2019-03-01T20:52:05.662Z,6.90
2019-03-01T20:57:12.325Z,6.90
2019-03-01T21:02:20.711Z,6.80
2019-03-01T21:07:27.041Z,6.90
2019-03-01T21:12:33.501Z,6.90
2019-03-01T21:17:41.535Z,6.80
2019-03-01T21:22:47.788Z,6.60
2019-03-01T21:27:54.058Z,6.60
2019-03-01T21:33:01.633Z,6.60
2019-03-01T21:38:10.565Z,6.60
2019-03-01T21:43:16.455Z,6.60
2019-03-01T21:48:25.291Z,6.70
2019-03-01T21:53:36.434Z,6.70
2019-03-01T21:58:42.945Z,6.70
2019-03-01T22:03:49.514Z,6.70
2019-03-01T22:08:57.075Z,6.60
2019-03-01T22:14:03.499Z,6.60
2019-03-01T22:19:10.103Z,6.60
2019-03-01T22:24:16.546Z,6.60
2019-03-01T22:29:24.688Z,6.60
2019-03-01T22:34:32.067Z,6.60
2019-03-01T22:39:38.865Z,6.60
2019-03-01T22:44:45.136Z,6.60
2019-03-01T22:49:51.460Z,6.60
2019-03-01T22:55:01.451Z,6.60
2019-03-01T23:00:09.667Z,6.60
2019-03-01T23:05:17.469Z,6.60
2019-03-01T23:10:23.771Z,6.60
2019-03-01T23:15:30.359Z,6.60
2019-03-01T23:20:36.763Z,6.60
2019-03-01T23:25:47.666Z,6.60
2019-03-01T23:30:54.076Z,6.60
2019-03-01T23:36:00.432Z,6.70
2019-03-01T23:41:07.787Z,6.70
2019-03-01T23:46:25.618Z,6.60
2019-03-01T23:51:30.586Z,6.70
2019-03-01T23:56:36.953Z,6.70
